Tiempo atmosférico en la estación meteorológica de Fuente De Cantos, Badajoz (602 m.)



Fecha
DESCASC
Temp. máxima en grados centígrados (hora)
DESCASC
Temp. mínima en grados centígrados (hora)
DESCASC
Temp. media en grados centígrados
DESCASC
Racha de viento máxima en m/sg (hora)
DESCASC
Velocidad máxima media en intervalos de 10 minutos(hora)
DESCASC
Precipitaciones diarias en mm
DESCASC
Precipitaciones de 00:00 a 06:00 en mm
DESCASC
Precipitaciones de 06:00 a 12:00 en mm
DESCASC
Precipitaciones de 12:00 a 18:00 en mm
DESCASC
Precipitaciones de 18:00 a 24:00 en mm
DESCASC
15-07-2018 26.8 (16:10) 14 (03:50) 20.4 12.22 (15:50) 8.61 (20:50) 0 0 0 0 0
14-07-2018 28.8 (17:00) 13.2 (07:30) 21 10.56 (17:10) 7.22 (17:10) 0 0 0 0 0
13-07-2018 30.4 (18:40) 14.1 (08:00) 22.3 10 (18:00) 5.83 (19:00) 0 0 0 0 0
12-07-2018 31.6 (17:20) 15.4 (00:00) 23.5 9.17 (12:30) 5.28 (14:10) 0 0 0 0 0
11-07-2018 30.3 (16:30) 15.7 (00:00) 23 10 (16:50) 6.39 (16:40) 0 0 0 0 0
10-07-2018 35.1 (16:30) 18.8 (00:00) 26.9 12.5 (17:40) 7.5 (17:40) 0 0 0 0 0
09-07-2018 36.2 (17:50) 18.8 (00:00) 27.5 10 (15:20) 6.67 (19:50) 0 0 0 0 0
08-07-2018 35 (17:40) 18.2 (06:00) 26.6 11.11 (19:40) 6.67 (19:00) 0 0 0 0 0
07-07-2018 34.5 (17:20) 17.5 (00:00) 26 10.28 (13:00) 5.83 (21:20) 0 0 0 0 0
06-07-2018 32.6 (16:50) 13.8 (00:00) 23.2 9.44 (17:40) 6.94 (18:00) 0 0 0 0 0
05-07-2018 29.1 (17:10) 12.3 (07:00) 20.7 8.06 (16:40) 5.28 (19:50) 0 0 0 0 0
04-07-2018 25.7 (19:30) 11.2 (07:20) 18.5 12.5 (15:40) 7.5 (15:50) 0 0 0 0 0
03-07-2018 31.6 (18:10) 13.6 (05:50) 22.6 11.11 (23:50) 8.06 (23:50) 0 0 0 0 0
02-07-2018 25 (16:50) 12.5 (05:20) 18.8 7.78 (18:00) 5 (00:50) 0 0 0 0 0
01-07-2018 24.9 (17:50) 14.1 (00:00) 19.5 10.28 (16:40) 7.22 (16:40) 0 0 0 0 0
30-06-2018 22.7 (12:30) 15.4 (07:20) 19.1 12.5 (19:40) 9.44 (19:40) 5.2 0 0 5.2 0
29-06-2018 31.4 (17:00) 14.7 (00:00) 23 10 (17:20) 6.11 (18:00) 0 0 0 0 0
28-06-2018 30.9 (16:10) 15.2 (00:00) 23 10.28 (20:20) 7.22 (20:20) 0 0 0 0 0
27-06-2018 30.3 (16:10) 12.7 (00:00) 21.5 9.17 (16:20) 6.11 (17:30) 0 0 0 0 0
26-06-2018 31.3 (15:30) 14.9 (00:00) 23.1 9.72 (21:30) 7.22 (21:20) 0 0 0 0 0
25-06-2018 31.6 (18:50) 16.2 (00:00) 23.9 9.17 (16:10) 5.83 (21:40) 0 0 0 0 0
24-06-2018 35.2 (15:40) 17.5 (00:00) 26.4 10.28 (16:00) 6.67 (16:00) 0 0 0 0 0
23-06-2018 34.9 (17:10) 18.2 (00:00) 26.6 11.94 (16:00) 6.39 (16:00) 0 0 0 0 0
22-06-2018 33.5 (16:50) 17.5 (07:20) 25.5 9.17 (17:40) 5.83 (17:40) 0 0 0 0 0
21-06-2018 32.2 (18:30) 17.7 (00:00) 25 10 (21:30) 7.5 (21:30) 0.6 0 0.6 0 0
20-06-2018 33.5 (18:00) 17.2 (00:00) 25.4 11.39 (14:10) 7.5 (14:20) 0 0 0 0 0
19-06-2018 33.4 (17:10) 18 (00:00) 25.7 8.61 (16:00) 5.56 (15:30) 0 0 0 0 0
18-06-2018 35.9 (18:20) 19.8 (00:00) 27.9 9.72 (11:00) 6.67 (11:10) 0 0 0 0 0
17-06-2018 36.3 (15:20) 20.2 (00:00) 28.3 7.5 (14:50) 5.28 (20:40) 0 0 0 0 0

Gráficas

Temp. máximas Temp. mínimas Temp. medias Precipitaciones Rachas de viento máximas Velocidades máximas media en intervalos de 10 minutos

Datos horarios

Fecha y hora oficial Temperatura (ºC) Velocidad del viento (km/h) Dirección del viento Racha (km/h) Dirección de racha Precipitación (mm) Presión (hPa) Tendencia (hPa) Humedad (%)
2018-07-16 23:00:00 21.7 11 Norte 13 Norte 0 -- -- 35
2018-07-16 22:00:00 23.6 12 Norte 23 Norte 0 -- -- 32
2018-07-16 21:00:00 27.5 15 Norte 23 Nordeste 0 -- -- 29
2018-07-16 20:00:00 29.1 11 Norte 27 Norte 0 -- -- 25
2018-07-16 19:00:00 29.9 10 Noroeste 31 Oeste 0 -- -- 23
2018-07-16 18:00:00 29.7 14 Noroeste 22 Noroeste 0 -- -- 24
2018-07-16 17:00:00 29.2 11 Norte 24 Noroeste 0 -- -- 26
2018-07-16 16:00:00 28.4 9 Sur 22 Noroeste 0 -- -- 28
2018-07-16 15:00:00 27.4 9 Norte 27 Noroeste 0 -- -- 30
2018-07-16 14:00:00 26.2 9 Noroeste 23 Noroeste 0 -- -- 36
2018-07-16 13:00:00 24.7 11 Noroeste 24 Noroeste 0 -- -- 42
2018-07-16 12:00:00 23 10 Noroeste 19 Oeste 0 -- -- 49
2018-07-16 11:00:00 20.6 8 Noroeste 17 Noroeste 0 -- -- 59
2018-07-16 10:00:00 18.1 10 Oeste 15 Oeste 0 -- -- 74
2018-07-16 09:00:00 15.6 13 Oeste 18 Oeste 0 -- -- 86
2018-07-16 08:00:00 14.3 9 Oeste 14 Oeste 0 -- -- 94
2018-07-16 07:00:00 13.7 7 Sudoeste 13 Oeste 0 -- -- 92
2018-07-16 06:00:00 14.8 11 Oeste 17 Oeste 0 -- -- 90
2018-07-16 05:00:00 15.1 12 Oeste 21 Oeste 0 -- -- 90
2018-07-16 04:00:00 15.5 21 Oeste 28 Oeste 0 -- -- 86
2018-07-16 03:00:00 16.1 17 Oeste 32 Oeste 0 -- -- 84
2018-07-16 02:00:00 16.1 21 Oeste 33 Oeste 0 -- -- 82
2018-07-16 01:00:00 16.7 18 Oeste 21 Oeste 0 -- -- 75
2018-07-16 00:00:00 18.7 14 Oeste 28 Oeste 0 -- -- 67
2018-07-15 23:00:00 19.1 20 Oeste 30 Oeste 0 -- -- 64
2018-07-15 22:00:00 20.5 20 Oeste 35 Oeste 0 -- -- 57
2018-07-15 21:00:00 22.5 29 Oeste 41 Oeste 0 -- -- 50
2018-07-15 20:00:00 24.8 30 Oeste 40 Oeste 0 -- -- 40
2018-07-15 19:00:00 25.4 22 Oeste 40 Oeste 0 -- -- 35
2018-07-15 18:00:00 24.9 24 Oeste 41 Oeste 0 -- -- 36
2018-07-15 17:00:00 25.4 26 Oeste 39 Oeste 0 -- -- 35
2018-07-15 16:00:00 26.3 23 Sudoeste 44 Sudoeste 0 -- -- 33
2018-07-15 15:00:00 24.6 14 Oeste 32 Sudoeste 0 -- -- 39
2018-07-15 14:00:00 24 16 Oeste 33 Sudoeste 0 -- -- 42
2018-07-15 13:00:00 23.8 12 Oeste 26 Sudoeste 0 -- -- 44
2018-07-15 12:00:00 21.3 5 Oeste 24 Noroeste 0 -- -- 55
2018-07-15 11:00:00 19.4 8 Oeste 18 Oeste 0 -- -- 63
2018-07-15 10:00:00 17.6 7 Sudoeste 13 Sudoeste 0 -- -- 70
2018-07-15 09:00:00 15.9 7 Oeste 13 Sudoeste 0 -- -- 79
2018-07-15 08:00:00 14.7 6 Sudoeste 13 Oeste 0 -- -- 86
2018-07-15 07:00:00 14.5 9 Sudoeste 16 Oeste 0 -- -- 86
2018-07-15 06:00:00 14.8 15 Oeste 23 Oeste 0 -- -- 85
2018-07-15 05:00:00 15 14 Oeste 20 Oeste 0 -- -- 85
2018-07-15 04:00:00 14.1 13 Oeste 18 Oeste 0 -- -- 88
2018-07-15 03:00:00 15 14 Oeste 22 Oeste 0 -- -- 83
2018-07-15 02:00:00 16.2 15 Oeste 23 Oeste 0 -- -- 77
2018-07-15 01:00:00 17.4 16 Oeste 27 Sudoeste 0 -- -- 70
2018-07-15 00:00:00 19.1 19 Sudoeste 28 Sudoeste 0 -- -- 60
2018-07-14 23:00:00 20.5 12 Sur 20 Sur 0 -- -- 52
2018-07-14 22:00:00 22.7 17 Sudoeste 27 Sudoeste 0 -- -- 45
2018-07-14 21:00:00 26.1 19 Sudoeste 34 Sudoeste 0 -- -- 35
2018-07-14 20:00:00 27.8 17 Sur 32 Sudoeste 0 -- -- 31
2018-07-14 19:00:00 28.5 20 Sur 38 Sur 0 -- -- 30
2018-07-14 18:00:00 28.7 19 Sudoeste 38 Sur 0 -- -- 33
2018-07-14 17:00:00 28.8 21 Sur 37 Sudoeste 0 -- -- 28
2018-07-14 16:00:00 27.6 12 Sudoeste 30 Sur 0 -- -- 36
2018-07-14 15:00:00 26.7 19 Sur 35 Sur 0 -- -- 37
2018-07-14 14:00:00 26.5 14 Sudoeste 32 Oeste 0 -- -- 37
2018-07-14 13:00:00 25.1 14 Sudoeste 26 Sudoeste 0 -- -- 44
2018-07-14 12:00:00 23.6 10 Sur 21 Sur 0 -- -- 48
2018-07-14 11:00:00 21.5 8 Oeste 15 Sudoeste 0 -- -- 57
2018-07-14 10:00:00 18.9 10 Sur 15 Sur 0 -- -- 69
2018-07-14 09:00:00 15.8 12 Sudeste 16 Sudeste 0 -- -- 86
2018-07-14 08:00:00 13.4 9 Sudeste 13 Sudeste 0 -- -- 90
2018-07-14 07:00:00 13.8 4 Sudeste 5 Sur 0 -- -- 88
2018-07-14 06:00:00 14.4 3 Sudoeste 8 Sudoeste 0 -- -- 86
2018-07-14 05:00:00 15 4 Sudoeste 6 Oeste 0 -- -- 82
2018-07-14 04:00:00 16.3 3 Noroeste 9 Sudoeste 0 -- -- 78
2018-07-14 03:00:00 17.2 5 Sudoeste 8 Sudoeste 0 -- -- 74
2018-07-14 02:00:00 18.7 6 Oeste 8 Oeste 0 -- -- 68
2018-07-14 01:00:00 19 9 Sudoeste 15 Sudeste 0 -- -- 66
2018-07-14 00:00:00 20.2 8 Sur 12 Sudoeste 0 -- -- 60
2018-07-13 23:00:00 21.4 9 Sudoeste 18 Sur 0 -- -- 55
2018-07-13 22:00:00 23.7 14 Sur 26 Sur 0 -- -- 49
2018-07-13 21:00:00 26.7 19 Sur 24 Sur 0 -- -- 37
2018-07-13 20:00:00 28.5 18 Sur 31 Sur 0 -- -- 31
2018-07-13 19:00:00 29.6 21 Sur 36 Sudoeste 0 -- -- 30
2018-07-13 18:00:00 30.1 19 Sur 36 Sur 0 -- -- 30
2018-07-13 17:00:00 30.1 9 Sudeste 27 Oeste 0 -- -- 33
2018-07-13 16:00:00 28.6 13 Oeste 26 Oeste 0 -- -- 42
2018-07-13 15:00:00 28.4 12 Sur 23 Sur 0 -- -- 42
2018-07-13 14:00:00 27.7 10 Sur 26 Sur 0 -- -- 40
2018-07-13 13:00:00 25.2 10 Sur 21 Sudeste 0 -- -- 50
2018-07-13 12:00:00 23.9 7 Sudeste 24 Sudeste 0 -- -- 56
2018-07-13 11:00:00 21.4 5 Oeste 9 Sur 0 -- -- 67
2018-07-13 10:00:00 18.5 3 Sudeste 11 Sudeste 0 -- -- 80
2018-07-13 09:00:00 14.9 8 Sudeste 13 Sudeste 0 -- -- 94
2018-07-13 08:00:00 14.1 6 Sudeste 10 Sudeste 0 -- -- 92
2018-07-13 07:00:00 14.5 10 Sudeste 14 Este 0 -- -- 90
2018-07-13 06:00:00 15.1 9 Este 14 Este 0 -- -- 87
2018-07-13 05:00:00 16 5 Sur 9 Sur 0 -- -- 87
2018-07-13 04:00:00 16.8 5 Sudoeste 12 Sudoeste 0 -- -- 84
2018-07-13 03:00:00 17.5 9 Oeste 14 Sudoeste 0 -- -- 81
2018-07-13 02:00:00 18.8 3 Sudoeste 12 Sudeste 0 -- -- 76
2018-07-13 01:00:00 20.3 6 Sur 12 Sudoeste 0 -- -- 65
2018-07-13 00:00:00 21.7 9 Sudoeste 21 Oeste 0 -- -- 58
2018-07-12 23:00:00 23 14 Oeste 19 Oeste 0 -- -- 55
2018-07-12 22:00:00 24.8 15 Oeste 24 Sudoeste 0 -- -- 51
2018-07-12 21:00:00 27.5 15 Sur 27 Sudoeste 0 -- -- 43
2018-07-12 20:00:00 27.9 17 Sudoeste 27 Sudoeste 0 -- -- 40
2018-07-12 19:00:00 30.5 11 Sur 28 Sur 0 -- -- 34
2018-07-12 18:00:00 30.2 12 Sur 28 Sur 0 -- -- 35
2018-07-12 17:00:00 31.3 15 Sur 27 Sur 0 -- -- 33
2018-07-12 16:00:00 30.8 13 Sur 27 Sudeste 0 -- -- 35
2018-07-12 15:00:00 30 10 Sur 30 Sur 0 -- -- 34
2018-07-12 14:00:00 29.6 16 Sur 29 Sudoeste 0 -- -- 38
2018-07-12 13:00:00 28 15 Sudoeste 33 Sudoeste 0 -- -- 40
2018-07-12 12:00:00 27.3 11 Oeste 20 Sudoeste 0 -- -- 44
2018-07-12 11:00:00 25.1 8 Oeste 19 Sudoeste 0 -- -- 50
2018-07-12 10:00:00 22.5 3 Sur 6 Sur 0 -- -- 58
2018-07-12 09:00:00 19.1 4 Este 12 Este 0 -- -- 77
2018-07-12 08:00:00 16 10 Este 15 Este 0 -- -- 88
2018-07-12 07:00:00 16 9 Sudeste 9 Sudeste 0 -- -- 90
2018-07-12 06:00:00 16.1 5 Sur 6 Sudoeste 0 -- -- 87
2018-07-12 05:00:00 16.7 6 Sudoeste 7 Oeste 0 -- -- 83
2018-07-12 04:00:00 17.1 7 Sudoeste 13 Sudoeste 0 -- -- 81
2018-07-12 03:00:00 17.8 10 Sudoeste 13 Sudoeste 0 -- -- 76
2018-07-12 02:00:00 19 11 Oeste 17 Oeste 0 -- -- 71
2018-07-12 01:00:00 20.1 12 Sudoeste 16 Oeste 0 -- -- 62
2018-07-12 00:00:00 21.7 14 Oeste 18 Oeste 0 -- -- 54
2018-07-11 23:00:00 22.7 8 Sudoeste 19 Oeste 0 -- -- 50
2018-07-11 22:00:00 24.6 15 Oeste 27 Oeste 0 -- -- 45
2018-07-11 21:00:00 27.3 19 Oeste 30 Noroeste 0 -- -- 38
2018-07-11 20:00:00 29.2 18 Noroeste 33 Oeste 0 -- -- 31
2018-07-11 19:00:00 30.3 15 Oeste 31 Oeste 0 -- -- 32
2018-07-11 18:00:00 30 17 Oeste 32 Oeste 0 -- -- 33
2018-07-11 17:00:00 30 23 Oeste 36 Oeste 0 -- -- 33
2018-07-11 16:00:00 29.7 21 Oeste 34 Oeste 0 -- -- 37
2018-07-11 15:00:00 28.8 21 Oeste 36 Oeste 0 -- -- 43
2018-07-11 14:00:00 27.1 18 Oeste 29 Noroeste 0 -- -- 50
2018-07-11 13:00:00 25.5 13 Noroeste 24 Noroeste 0 -- -- 55
2018-07-11 12:00:00 22.6 15 Noroeste 24 Noroeste 0 -- -- 65
2018-07-11 11:00:00 21.4 11 Noroeste 19 Oeste 0 -- -- 68
2018-07-11 10:00:00 20 8 Noroeste 12 Noroeste 0 -- -- 76
2018-07-11 09:00:00 18.8 4 Oeste 10 Noroeste 0 -- -- 85
2018-07-11 08:00:00 16 9 Sudeste 11 Sudeste 0 -- -- 93
2018-07-11 07:00:00 15.9 4 Sudoeste 10 Oeste 0 -- -- 91
2018-07-11 06:00:00 16.5 7 Oeste 9 Sudoeste 0 -- -- 90
2018-07-11 05:00:00 17 5 Sudoeste 11 Sudoeste 0 -- -- 87
2018-07-11 04:00:00 17.3 9 Sudoeste 17 Oeste 0 -- -- 84
2018-07-11 03:00:00 18.4 14 Oeste 20 Oeste 0 -- -- 79
2018-07-11 02:00:00 19.6 17 Oeste 22 Oeste 0 -- -- 73
2018-07-11 01:00:00 20.8 16 Oeste 23 Oeste 0 -- -- 63
2018-07-11 00:00:00 21.8 15 Sudoeste 20 Sudoeste 0 -- -- 50
2018-07-10 23:00:00 23.5 14 Oeste 23 Oeste 0 -- -- 43
2018-07-10 22:00:00 26.3 19 Oeste 33 Oeste 0 -- -- 36
2018-07-10 21:00:00 29.4 23 Oeste 37 Oeste 0 -- -- 31
2018-07-10 20:00:00 31.7 25 Oeste 37 Oeste 0 -- -- 29
2018-07-10 19:00:00 32.9 25 Oeste 40 Sudoeste 0 -- -- 30
2018-07-10 18:00:00 33.9 23 Oeste 45 Sudoeste 0 -- -- 29
2018-07-10 17:00:00 34.9 17 Sur 35 Sudoeste 0 -- -- 25
2018-07-10 16:00:00 34.5 17 Sudoeste 32 Sudoeste 0 -- -- 22
2018-07-10 15:00:00 34.2 17 Sudoeste 36 Sudoeste 0 -- -- 23
2018-07-10 14:00:00 33.3 19 Sudoeste 29 Sudoeste 0 -- -- 27
2018-07-10 13:00:00 31.7 19 Oeste 32 Oeste 0 -- -- 36
2018-07-10 12:00:00 31 16 Oeste 35 Sudoeste 0 -- -- 38
2018-07-10 11:00:00 30.3 14 Sur 26 Sur 0 -- -- 34
2018-07-10 10:00:00 27.1 6 Sur 9 Sur 0 -- -- 43
2018-07-10 09:00:00 23 5 Sudeste 6 Sur 0 -- -- 64
2018-07-10 08:00:00 20.2 2 Sudoeste 3 Este 0 -- -- 71
2018-07-10 07:00:00 19 3 Oeste 9 Sudoeste 0 -- -- 75
2018-07-10 06:00:00 18.8 8 Sudoeste 13 Sudoeste 0 -- -- 71
2018-07-10 05:00:00 19.1 10 Sudoeste 12 Sudoeste 0 -- -- 65
2018-07-10 04:00:00 20.1 9 Sudoeste 13 Sudoeste 0 -- -- 59
2018-07-10 03:00:00 20.9 8 Sudoeste 10 Sudoeste 0 -- -- 56
2018-07-10 02:00:00 22 7 Sudoeste 11 Sudoeste 0 -- -- 47
2018-07-10 01:00:00 23.2 8 Sudoeste 11 Sudoeste 0 -- -- 41
2018-07-10 00:00:00 24.4 7 Sudoeste 17 Oeste 0 -- -- 37
2018-07-09 23:00:00 25.5 18 Oeste 21 Oeste 0 -- -- 36
2018-07-09 22:00:00 28.3 17 Oeste 27 Noroeste 0 -- -- 32
2018-07-09 21:00:00 31.4 20 Noroeste 29 Oeste 0 -- -- 30
2018-07-09 20:00:00 32.9 23 Noroeste 34 Oeste 0 -- -- 29
2018-07-09 19:00:00 34.6 23 Oeste 36 Noroeste 0 -- -- 26
2018-07-09 18:00:00 35.8 15 Oeste 35 Sudoeste 0 -- -- 22
2018-07-09 17:00:00 35.9 21 Sudoeste 33 Oeste 0 -- -- 22
2018-07-09 16:00:00 35.5 12 Sudoeste 36 Sur 0 -- -- 23
2018-07-09 15:00:00 34.4 10 Sudoeste 28 Sudoeste 0 -- -- 24
2018-07-09 14:00:00 33.6 12 Oeste 29 Sur 0 -- -- 24
2018-07-09 13:00:00 32.6 17 Sur 26 Sur 0 -- -- 27
2018-07-09 12:00:00 31.2 6 Nordeste 20 Sudeste 0 -- -- 31
2018-07-09 11:00:00 29.7 7 Sur 15 Sudoeste 0 -- -- 36
2018-07-09 10:00:00 27.1 3 Oeste 6 Oeste 0 -- -- 43
2018-07-09 09:00:00 23.8 3 Sudeste 5 Sur 0 -- -- 53
2018-07-09 08:00:00 20.7 4 Sur 7 Sur 0 -- -- 64
2018-07-09 07:00:00 18.8 5 Sur 8 Sur 0 -- -- 68
2018-07-09 06:00:00 19 6 Sudoeste 8 Sudoeste 0 -- -- 65
2018-07-09 05:00:00 19.3 4 Sudoeste 8 Sudoeste 0 -- -- 63
2018-07-09 04:00:00 19.7 5 Sudoeste 9 Sudoeste 0 -- -- 57
2018-07-09 03:00:00 20.9 5 Sudoeste 7 Sudoeste 0 -- -- 51
2018-07-09 02:00:00 22 4 Sudoeste 8 Sudoeste 0 -- -- 45
2018-07-09 01:00:00 23.2 5 Oeste 6 Oeste 0 -- -- 42
2018-07-09 00:00:00 23.6 6 Oeste 12 Oeste 0 -- -- 40
2018-07-08 23:00:00 24.8 12 Oeste 18 Oeste 0 -- -- 37
2018-07-08 22:00:00 27.3 15 Oeste 31 Oeste 0 -- -- 34
2018-07-08 21:00:00 30.5 19 Noroeste 35 Oeste 0 -- -- 29
2018-07-08 20:00:00 32 22 Oeste 40 Oeste 0 -- -- 29
2018-07-08 19:00:00 33.6 24 Oeste 38 Oeste 0 -- -- 28
2018-07-08 18:00:00 34.7 11 Sudoeste 31 Sudoeste 0 -- -- 26
2018-07-08 17:00:00 33.6 10 Oeste 30 Sudoeste 0 -- -- 27
2018-07-08 16:00:00 32.6 7 Sudoeste 27 Oeste 0 -- -- 28
2018-07-08 15:00:00 34.1 15 Sudoeste 33 Sudoeste 0 -- -- 27
2018-07-08 14:00:00 32.8 9 Sudoeste 27 Sur 0 -- -- 29
2018-07-08 13:00:00 31.8 11 Sudoeste 21 Sudoeste 0 -- -- 31
2018-07-08 12:00:00 29.8 8 Noroeste 21 Oeste 0 -- -- 33
2018-07-08 11:00:00 28.1 5 Oeste 12 Sur 0 -- -- 35
2018-07-08 10:00:00 25.2 5 Oeste 9 Noroeste 0 -- -- 41
2018-07-08 09:00:00 22.8 5 Noroeste 7 Oeste 0 -- -- 52
2018-07-08 08:00:00 20.1 3 Sudoeste 8 Sur 0 -- -- 63
2018-07-08 07:00:00 18.4 6 Sur 10 Sur 0 -- -- 73
2018-07-08 06:00:00 18.2 5 Sur 6 Sur 0 -- -- 72
2018-07-08 05:00:00 19.1 3 Sudoeste 5 Sudoeste 0 -- -- 67
2018-07-08 04:00:00 19.9 2 Sudoeste 5 Oeste 0 -- -- 62
2018-07-08 03:00:00 20.4 4 Oeste 11 Noroeste 0 -- -- 61
2018-07-08 02:00:00 21 9 Oeste 13 Oeste 0 -- -- 57
2018-07-08 01:00:00 22.2 8 Noroeste 18 Noroeste 0 -- -- 51
2018-07-08 00:00:00 23.7 8 Oeste 11 Oeste 0 -- -- 40
2018-07-07 23:00:00 25.1 9 Sudoeste 14 Oeste 0 -- -- 35
2018-07-07 22:00:00 26.9 13 Oeste 27 Oeste 0 -- -- 32
2018-07-07 21:00:00 29.5 20 Oeste 28 Oeste 0 -- -- 29
2018-07-07 20:00:00 31.8 19 Oeste 32 Oeste 0 -- -- 27
2018-07-07 19:00:00 33.3 19 Oeste 33 Oeste 0 -- -- 27
2018-07-07 18:00:00 33.9 15 Oeste 37 Oeste 0 -- -- 27
2018-07-07 17:00:00 33.9 7 Norte 26 Sudoeste 0 -- -- 27
2018-07-07 16:00:00 33.8 14 Sudoeste 30 Sudoeste 0 -- -- 26
2018-07-07 15:00:00 32.9 12 Sur 30 Oeste 0 -- -- 26
2018-07-07 14:00:00 32.3 11 Sudoeste 24 Sur 0 -- -- 27
2018-07-07 13:00:00 31 10 Sur 37 Sudoeste 0 -- -- 29
2018-07-07 12:00:00 29.5 6 Sudeste 16 Sudoeste 0 -- -- 35
2018-07-07 11:00:00 27.7 7 Sudeste 20 Sudeste 0 -- -- 41
2018-07-07 10:00:00 25.4 5 Sudeste 9 Sudeste 0 -- -- 45
2018-07-07 09:00:00 20.7 3 Noroeste 6 Sur 0 -- -- 57
2018-07-07 08:00:00 18.1 6 Sudeste -- -- 0 -- -- 65
2018-07-07 07:00:00 17.9 4 Oeste 5 Oeste 0 -- -- 65
2018-07-07 06:00:00 18.1 4 Sudoeste 5 Sudoeste 0 -- -- 63
2018-07-07 05:00:00 18.2 4 Sudoeste 8 Sudoeste 0 -- -- 65
2018-07-07 04:00:00 19 3 Sudoeste 6 Sudoeste 0 -- -- 63
2018-07-07 03:00:00 19.7 6 Oeste 8 Oeste 0 -- -- 58
2018-07-07 02:00:00 20.5 7 Oeste 10 Sudoeste 0 -- -- 52
2018-07-07 01:00:00 21.4 7 Sudoeste 12 Sudoeste 0 -- -- 48
2018-07-07 00:00:00 22.3 7 Sudoeste 13 Sudoeste 0 -- -- 43
2018-07-06 23:00:00 23.1 9 Sudoeste 13 Sudoeste 0 -- -- 42
2018-07-06 22:00:00 24.6 11 Oeste 25 Oeste 0 -- -- 38
2018-07-06 21:00:00 25.8 15 Oeste 30 Oeste 0 -- -- 35
2018-07-06 20:00:00 27.2 21 Oeste 30 Oeste 0 -- -- 34
2018-07-06 19:00:00 28.5 22 Oeste 33 Oeste 0 -- -- 33
2018-07-06 18:00:00 30 25 Oeste 34 Oeste 0 -- -- 31
2018-07-06 17:00:00 31.7 10 Sudoeste 28 Oeste 0 -- -- 30
2018-07-06 16:00:00 31.7 10 Sudoeste 27 Sudoeste 0 -- -- 28
2018-07-06 15:00:00 31.6 10 Oeste 30 Oeste 0 -- -- 28
2018-07-06 14:00:00 30.6 13 Sur 30 Noroeste 0 -- -- 30
2018-07-06 13:00:00 29.2 7 Sudoeste 20 Sudeste 0 -- -- 35
2018-07-06 12:00:00 27.6 6 Sudeste 15 Sudeste 0 -- -- 38
2018-07-06 11:00:00 25.3 5 Sudeste 13 Este 0 -- -- 45
2018-07-06 10:00:00 22 3 Noroeste 8 Oeste 0 -- -- 56
2018-07-06 09:00:00 18.7 5 Sudoeste 6 Sudoeste 0 -- -- 71
2018-07-06 08:00:00 15.3 4 Sur 9 Sur 0 -- -- 84
2018-07-06 07:00:00 13.8 7 Sudoeste 11 Sudoeste 0 -- -- 86
2018-07-06 06:00:00 13.9 8 Sudoeste 11 Sudoeste 0 -- -- 85
2018-07-06 05:00:00 14.8 8 Sudoeste 9 Sudoeste 0 -- -- 79
2018-07-06 04:00:00 15.9 6 Sudoeste 10 Oeste 0 -- -- 73
2018-07-06 03:00:00 16.8 5 Sudoeste 10 Oeste 0 -- -- 67
2018-07-06 02:00:00 17.7 6 Oeste 8 Noroeste 0 -- -- 61
2018-07-06 01:00:00 19 6 Oeste 9 Oeste 0 -- -- 54
2018-07-06 00:00:00 20.4 8 Oeste 14 Oeste 0 -- -- 49
2018-07-05 23:00:00 21.3 6 Noroeste 18 Norte 0 -- -- 44
2018-07-05 22:00:00 23.3 14 Norte 21 Norte 0 -- -- 38
2018-07-05 21:00:00 26.4 18 Norte 28 Norte 0 -- -- 34
2018-07-05 20:00:00 27.8 18 Norte 29 Noroeste 0 -- -- 32
2018-07-05 19:00:00 28.7 15 Noroeste 29 Noroeste 0 -- -- 33
2018-07-05 18:00:00 29.1 14 Noroeste 27 Noroeste 0 -- -- 33
2018-07-05 17:00:00 28.9 8 Oeste 29 Oeste 0 -- -- 31
2018-07-05 16:00:00 27.9 10 Noroeste 23 Oeste 0 -- -- 32
2018-07-05 15:00:00 26.8 6 Noroeste 28 Oeste 0 -- -- 35
2018-07-05 14:00:00 25.3 13 Noroeste 26 Noroeste 0 -- -- 39
2018-07-05 13:00:00 24 11 Noroeste 20 Noroeste 0 -- -- 44
2018-07-05 12:00:00 22.2 8 Noroeste 15 Oeste 0 -- -- 49
2018-07-05 11:00:00 19.9 5 Oeste 11 Oeste 0 -- -- 57
2018-07-05 10:00:00 17.4 5 Noroeste 12 Oeste 0 -- -- 72
2018-07-05 09:00:00 15.1 4 Oeste 8 Oeste 0 -- -- 84
2018-07-05 08:00:00 13.1 8 Sudoeste 9 Sudoeste 0 -- -- 89
2018-07-05 07:00:00 12.3 6 Sudoeste 9 Sudoeste 0 -- -- 91
2018-07-05 06:00:00 12.7 9 Sudoeste 10 Sudoeste 0 -- -- 89
2018-07-05 05:00:00 13.2 5 Sudoeste 17 Oeste 0 -- -- 87
2018-07-05 04:00:00 13.8 6 Noroeste 11 Oeste 0 -- -- 83
2018-07-05 03:00:00 14.8 4 Sudoeste 13 Noroeste 0 -- -- 77
2018-07-05 02:00:00 15.5 7 Noroeste 13 Oeste 0 -- -- 75
2018-07-05 01:00:00 16.5 8 Noroeste 14 Oeste 0 -- -- 71
2018-07-05 00:00:00 17.7 10 Oeste 16 Oeste 0 -- -- 66
2018-07-04 23:00:00 18.9 9 Oeste 21 Oeste 0 -- -- 59
2018-07-04 22:00:00 20.9 18 Oeste 28 Oeste 0 -- -- 53
2018-07-04 21:00:00 23.3 22 Oeste 33 Noroeste 0 -- -- 45
2018-07-04 20:00:00 25.1 25 Oeste 37 Oeste 0 -- -- 39
2018-07-04 19:00:00 24.1 24 Oeste 40 Oeste 0 -- -- 44
2018-07-04 18:00:00 24.2 22 Noroeste 37 Oeste 0 -- -- 43
2018-07-04 17:00:00 24.4 18 Oeste 40 Oeste 0 -- -- 42
2018-07-04 16:00:00 24.6 26 Oeste 45 Oeste 0 -- -- 42
2018-07-04 15:00:00 22.6 19 Oeste 36 Oeste 0 -- -- 48
2018-07-04 14:00:00 22.4 21 Oeste 41 Oeste 0 -- -- 49
2018-07-04 13:00:00 21.5 18 Oeste 33 Oeste 0 -- -- 53
2018-07-04 12:00:00 20 19 Oeste 32 Noroeste 0 -- -- 56
2018-07-04 11:00:00 18 19 Noroeste 30 Noroeste 0 -- -- 62
2018-07-04 10:00:00 16.4 13 Oeste 26 Oeste 0 -- -- 69
2018-07-04 09:00:00 13.6 17 Oeste 24 Oeste 0 -- -- 88
2018-07-04 08:00:00 11.9 13 Oeste 18 Sudoeste 0 -- -- 93
2018-07-04 07:00:00 11.3 11 Sudoeste 16 Oeste 0 -- -- 93
2018-07-04 06:00:00 12 7 Sudoeste 12 Oeste 0 -- -- 91
2018-07-04 05:00:00 12.5 8 Oeste 15 Oeste 0 -- -- 89
2018-07-04 04:00:00 13.4 12 Oeste 18 Oeste 0 -- -- 87
2018-07-04 03:00:00 14.4 15 Oeste 20 Oeste 0 -- -- 83
2018-07-04 02:00:00 15.7 14 Oeste 28 Oeste 0 -- -- 78
2018-07-04 01:00:00 17.3 18 Oeste 28 Oeste 0 -- -- 70
2018-07-04 00:00:00 19.2 22 Oeste 40 Oeste 0 -- -- 59
2018-07-03 23:00:00 21 14 Oeste 21 Oeste 0 -- -- 53
2018-07-03 22:00:00 23.5 18 Oeste 28 Oeste 0 -- -- 47
2018-07-03 21:00:00 27.6 18 Oeste 27 Sudoeste 0 -- -- 39
2018-07-03 20:00:00 29.6 21 Sudoeste 32 Sudoeste 0 -- -- 30
2018-07-03 19:00:00 30.7 18 Sudoeste 34 Sudoeste 0 -- -- 29
2018-07-03 18:00:00 30.6 16 Sudoeste 32 Sur 0 -- -- 32
2018-07-03 17:00:00 30.6 15 Sudoeste 30 Sudoeste 0 -- -- 32
2018-07-03 16:00:00 30 14 Oeste 29 Sudoeste 0 -- -- 32
2018-07-03 15:00:00 29.5 15 Oeste 25 Oeste 0 -- -- 36
2018-07-03 14:00:00 27.4 9 Sudeste 20 Sudoeste 0 -- -- 41
2018-07-03 13:00:00 26.4 10 Oeste 19 Oeste 0 -- -- 43
2018-07-03 12:00:00 24.6 6 Nordeste 16 Este 0 -- -- 50
2018-07-03 11:00:00 22.1 5 Norte 15 Nordeste 0 -- -- 60
2018-07-03 10:00:00 19.4 6 Norte 12 Norte 0 -- -- 71
2018-07-03 09:00:00 16.4 5 Noroeste 7 Noroeste 0 -- -- 86
2018-07-03 08:00:00 14.8 2 Sudoeste 5 Sur 0 -- -- 91
2018-07-03 07:00:00 13.8 4 Oeste 6 Sudoeste 0 -- -- 92
2018-07-03 06:00:00 13.6 3 Sur 5 Sudoeste 0 -- -- 90
2018-07-03 05:00:00 13.9 3 Sudoeste 8 Oeste 0 -- -- 88
2018-07-03 04:00:00 14.5 4 Oeste 9 Noroeste 0 -- -- 85
2018-07-03 03:00:00 15.3 6 Oeste 8 Oeste 0 -- -- 81
2018-07-03 02:00:00 17.4 2 Oeste 4 Oeste 0 -- -- 74
2018-07-03 01:00:00 17.6 3 Oeste 5 Oeste 0 -- -- 73
2018-07-03 00:00:00 17.8 5 Noroeste 10 Oeste 0 -- -- 71
2018-07-02 23:00:00 18.6 6 Noroeste 12 Noroeste 0 -- -- 68
2018-07-02 22:00:00 20.1 9 Noroeste 17 Oeste 0 -- -- 62
2018-07-02 21:00:00 22.9 12 Oeste 18 Oeste 0 -- -- 52
2018-07-02 20:00:00 22.3 12 Oeste 23 Oeste 0 -- -- 54
2018-07-02 19:00:00 23.4 11 Oeste 24 Oeste 0 -- -- 50
2018-07-02 18:00:00 24.2 14 Oeste 28 Oeste 0 -- -- 46
2018-07-02 17:00:00 24.7 13 Oeste 26 Oeste 0 -- -- 45
2018-07-02 16:00:00 24.7 12 Oeste 21 Sudoeste 0 -- -- 44
2018-07-02 15:00:00 22.9 9 Noroeste 23 Oeste 0 -- -- 50
2018-07-02 14:00:00 22 10 Oeste 17 Sur 0 -- -- 53
2018-07-02 13:00:00 20.5 7 Oeste 16 Oeste 0 -- -- 61
2018-07-02 12:00:00 18.7 5 Oeste 14 Sudoeste 0 -- -- 67
2018-07-02 11:00:00 18 5 Sudoeste 15 Oeste 0 -- -- 72
2018-07-02 10:00:00 16.8 9 Oeste 11 Sudoeste 0 -- -- 79
2018-07-02 09:00:00 15.6 7 Sudeste 12 Sudeste 0 -- -- 84
2018-07-02 08:00:00 13.8 8 Sudeste 10 Sudeste 0 -- -- 92
2018-07-02 07:00:00 13.5 4 Sudoeste 12 Sudoeste 0 -- -- 92
2018-07-02 06:00:00 13.4 6 Sudoeste 13 Oeste 0 -- -- 93
2018-07-02 05:00:00 12.7 4 Sur 14 Sudoeste 0 -- -- 92
2018-07-02 04:00:00 12.7 12 Sudoeste 14 Oeste 0 -- -- 91
2018-07-02 03:00:00 13.4 10 Oeste 13 Sudoeste 0 -- -- 90
2018-07-02 02:00:00 14.2 12 Sudoeste 19 Oeste 0 -- -- 87
2018-07-02 01:00:00 15.7 15 Sudoeste 23 Sudoeste 0 -- -- 82
2018-07-02 00:00:00 16.7 13 Sur 24 Sur 0 -- -- 78
2018-07-01 23:00:00 17.4 18 Sur 31 Sudoeste 0 -- -- 76
2018-07-01 22:00:00 18.5 19 Sudoeste 30 Sudoeste 0 -- -- 70
2018-07-01 21:00:00 21 23 Sudoeste 29 Sudoeste 0 -- -- 60
2018-07-01 20:00:00 22.8 21 Sudoeste 32 Sudoeste 0 -- -- 49
2018-07-01 19:00:00 23.8 25 Sudoeste 33 Sudoeste 0 -- -- 47
2018-07-01 18:00:00 24.3 15 Sudoeste 31 Sudoeste 0 -- -- 45
2018-07-01 17:00:00 23.7 19 Sudoeste 37 Sur 0 -- -- 43
2018-07-01 16:00:00 22.8 23 Sur 32 Sur 0 -- -- 47
2018-07-01 15:00:00 23.4 20 Sudoeste 33 Sudoeste 0 -- -- 46
2018-07-01 14:00:00 22.4 22 Sudoeste 35 Sudoeste 0 -- -- 48
2018-07-01 13:00:00 21.6 18 Sudoeste 29 Sudoeste 0 -- -- 51
2018-07-01 12:00:00 20.5 22 Sudoeste 31 Sudoeste 0 -- -- 55
2018-07-01 11:00:00 18.7 17 Sudoeste 25 Sudoeste 0 -- -- 65
2018-07-01 10:00:00 18.2 11 Sudoeste 15 Sudoeste 0 -- -- 70
2018-07-01 09:00:00 16 6 Oeste 12 Sudoeste 0 -- -- 82
2018-07-01 08:00:00 14.7 9 Oeste 13 Oeste 0 -- -- 91
2018-07-01 07:00:00 14.3 3 Sudoeste 6 Sudeste 0 -- -- 90
2018-07-01 06:00:00 14.7 4 Este 6 Noroeste 0 -- -- 91
2018-07-01 05:00:00 14.4 4 Oeste 12 Oeste 0 -- -- 91
2018-07-01 04:00:00 14.9 7 Oeste 12 Oeste 0 -- -- 90
2018-07-01 03:00:00 14.9 7 Sudoeste 16 Sudoeste 0 -- -- 86
2018-07-01 02:00:00 15.5 0 Calma 9 Este 0 -- -- 85
2018-07-01 01:00:00 15.2 8 Este 18 Sur 0 -- -- 86
2018-07-01 00:00:00 16.1 10 Sur 24 Sur 0 -- -- 82
2018-06-30 23:00:00 17.3 18 Sur 25 Sur 0 -- -- 80
2018-06-30 22:00:00 18.3 19 Sudoeste 29 Sur 0 -- -- 74
2018-06-30 21:00:00 20.9 19 Sur 42 Sur 0 -- -- 62
2018-06-30 20:00:00 21.8 33 Sur 45 Sur 0 -- -- 57
2018-06-30 19:00:00 22.6 26 Sur 40 Sur 0 -- -- 63
2018-06-30 18:00:00 22.1 24 Sur 35 Sur 0 -- -- 68
2018-06-30 17:00:00 19.8 19 Sudoeste 26 Sudoeste 0.4 -- -- 83
2018-06-30 16:00:00 17.8 17 Sudoeste 24 Sudoeste 4.6 -- -- 92
2018-06-30 15:00:00 18.7 13 Oeste 26 Sudoeste 0.2 -- -- 87
2018-06-30 14:00:00 20.3 12 Oeste 37 Sur 0 -- -- 71
2018-06-30 13:00:00 22.1 20 Sur 31 Sur 0 -- -- 55
2018-06-30 12:00:00 21.8 15 Sur 31 Sur 0 -- -- 54
2018-06-30 11:00:00 20.9 23 Sur 33 Sudoeste 0 -- -- 58
2018-06-30 10:00:00 18.9 18 Sur 28 Sur 0 -- -- 65
2018-06-30 09:00:00 18.6 15 Sudeste 22 Sudeste 0 -- -- 65
2018-06-30 08:00:00 15.6 7 Sudeste 22 Sudeste 0 -- -- 70
2018-06-30 07:00:00 15.9 18 Sudeste 24 Sudeste 0 -- -- 68
2018-06-30 06:00:00 17.1 5 Sudeste 22 Sudeste 0 -- -- 64
2018-06-30 05:00:00 17.5 18 Sudeste 24 Sudeste 0 -- -- 67
2018-06-30 04:00:00 18.4 10 Sudeste 13 Sudeste 0 -- -- 63
2018-06-30 03:00:00 17.9 9 Sur 12 Sudeste 0 -- -- 66
2018-06-30 02:00:00 18.5 6 Sur 15 Sudoeste 0 -- -- 64
2018-06-30 01:00:00 20 11 Sudoeste 15 Sudoeste 0 -- -- 60
2018-06-30 00:00:00 20.8 8 Sudoeste 18 Sudoeste 0 -- -- 58
2018-06-29 23:00:00 22.1 13 Sur 24 Sur 0 -- -- 56
2018-06-29 22:00:00 23.6 18 Sudoeste 26 Sudoeste 0 -- -- 54
2018-06-29 21:00:00 26 20 Sur 27 Sur 0 -- -- 39
2018-06-29 20:00:00 27.8 15 Sur 30 Sur 0 -- -- 35
2018-06-29 19:00:00 29 18 Sur 31 Sudoeste 0 -- -- 31
2018-06-29 18:00:00 30.5 22 Sur 36 Sur 0 -- -- 29
2018-06-29 17:00:00 31.4 17 Sudoeste 30 Sudeste 0 -- -- 29
2018-06-29 16:00:00 29.7 9 Sur 30 Sur 0 -- -- 31
2018-06-29 15:00:00 30 12 Sur 35 Sudoeste 0 -- -- 30
2018-06-29 14:00:00 28.7 11 Sur 29 Sur 0 -- -- 32
2018-06-29 13:00:00 27.7 7 Sudoeste 31 Sudoeste 0 -- -- 34
2018-06-29 12:00:00 27 14 Sudoeste 23 Sudoeste 0 -- -- 36
2018-06-29 11:00:00 24.6 9 Sudoeste 16 Sudoeste 0 -- -- 42
2018-06-29 10:00:00 21.9 5 Sur 8 Sudoeste 0 -- -- 54
2018-06-29 09:00:00 18.6 3 Sudeste 8 Sudeste 0 -- -- 68
2018-06-29 08:00:00 15.6 4 Sur 5 Sudoeste 0 -- -- 84
2018-06-29 07:00:00 14.8 4 Sur 8 Sur 0 -- -- 87
2018-06-29 06:00:00 14.8 5 Sur 9 Sudoeste 0 -- -- 87
2018-06-29 05:00:00 14.8 6 Sudoeste 13 Sudoeste 0 -- -- 85
2018-06-29 04:00:00 15.3 9 Sudoeste 13 Sudoeste 0 -- -- 80
2018-06-29 03:00:00 16.4 7 Sudoeste 10 Oeste 0 -- -- 74
2018-06-29 02:00:00 17.1 8 Oeste 16 Oeste 0 -- -- 69
2018-06-29 01:00:00 18.3 11 Oeste 14 Oeste 0 -- -- 60
2018-06-29 00:00:00 19.5 6 Oeste 12 Oeste 0 -- -- 54
2018-06-28 23:00:00 20.6 13 Oeste 23 Oeste 0 -- -- 49
2018-06-28 22:00:00 22.9 16 Oeste 31 Oeste 0 -- -- 42
2018-06-28 21:00:00 25.4 26 Noroeste 37 Noroeste 0 -- -- 37
2018-06-28 20:00:00 26.9 23 Noroeste 35 Oeste 0 -- -- 34
2018-06-28 19:00:00 27 18 Oeste 32 Noroeste 0 -- -- 34
2018-06-28 18:00:00 28.8 20 Noroeste 34 Noroeste 0 -- -- 30
2018-06-28 17:00:00 29.5 19 Noroeste 32 Oeste 0 -- -- 30
2018-06-28 16:00:00 30.6 10 Oeste 35 Oeste 0 -- -- 24
2018-06-28 15:00:00 29.9 12 Sudoeste 26 Sudoeste 0 -- -- 25
2018-06-28 14:00:00 28.2 6 Sudoeste 23 Oeste 0 -- -- 30
2018-06-28 13:00:00 25.9 8 Sudoeste 23 Oeste 0 -- -- 36
2018-06-28 12:00:00 23.1 9 Oeste 17 Oeste 0 -- -- 44
2018-06-28 11:00:00 20.6 8 Oeste 13 Oeste 0 -- -- 59
2018-06-28 10:00:00 18.2 6 Sur 14 Oeste 0 -- -- 71
2018-06-28 09:00:00 16.5 10 Oeste 15 Oeste 0 -- -- 79
2018-06-28 08:00:00 15.5 6 Oeste 12 Oeste 0 -- -- 83
2018-06-28 07:00:00 15.3 8 Sudoeste 12 Sudoeste 0 -- -- 82
2018-06-28 06:00:00 15.5 8 Oeste 13 Oeste 0 -- -- 81
2018-06-28 05:00:00 15.9 9 Sudoeste 14 Oeste 0 -- -- 78
2018-06-28 04:00:00 16.6 13 Oeste 18 Oeste 0 -- -- 75
2018-06-28 03:00:00 16.9 10 Sudoeste 15 Oeste 0 -- -- 71
2018-06-28 02:00:00 17.8 9 Oeste 13 Oeste 0 -- -- 62
2018-06-28 01:00:00 18.9 9 Oeste 13 Oeste 0 -- -- 56
2018-06-28 00:00:00 20 8 Oeste 16 Oeste 0 -- -- 50
2018-06-27 23:00:00 21.6 9 Oeste 22 Oeste 0 -- -- 46
2018-06-27 22:00:00 23.9 16 Oeste 25 Oeste 0 -- -- 39
2018-06-27 21:00:00 26.9 19 Oeste 29 Oeste 0 -- -- 33
2018-06-27 20:00:00 28.6 21 Oeste 30 Oeste 0 -- -- 28
2018-06-27 19:00:00 28.9 18 Oeste 30 Oeste 0 -- -- 28
2018-06-27 18:00:00 29.8 16 Oeste 30 Sudoeste 0 -- -- 28
2018-06-27 17:00:00 29.8 18 Oeste 33 Oeste 0 -- -- 28
2018-06-27 16:00:00 30.2 20 Oeste 30 Oeste 0 -- -- 25
2018-06-27 15:00:00 29.4 14 Noroeste 32 Oeste 0 -- -- 27
2018-06-27 14:00:00 28.7 17 Oeste 31 Oeste 0 -- -- 31
2018-06-27 13:00:00 26.9 11 Oeste 26 Oeste 0 -- -- 36
2018-06-27 12:00:00 24.8 11 Noroeste 22 Noroeste 0 -- -- 39
2018-06-27 11:00:00 23.2 8 Sudoeste 15 Oeste 0 -- -- 41
2018-06-27 10:00:00 19.7 4 Sudoeste 9 Sudoeste 0 -- -- 54
2018-06-27 09:00:00 16.3 3 Oeste 7 Sudoeste 0 -- -- 72
2018-06-27 08:00:00 13.3 7 Sudoeste 9 Sudoeste 0 -- -- 85
2018-06-27 07:00:00 12.9 8 Oeste 11 Oeste 0 -- -- 85
2018-06-27 06:00:00 13.5 7 Sudoeste 8 Sudoeste 0 -- -- 82
2018-06-27 05:00:00 14.1 6 Sudoeste 12 Oeste 0 -- -- 80
2018-06-27 04:00:00 14.9 10 Oeste 13 Oeste 0 -- -- 76
2018-06-27 03:00:00 16 11 Oeste 13 Oeste 0 -- -- 72
2018-06-27 02:00:00 17.2 9 Oeste 19 Oeste 0 -- -- 66
2018-06-27 01:00:00 18.9 12 Oeste 29 Oeste 0 -- -- 61
2018-06-27 00:00:00 20.7 21 Oeste 31 Oeste 0 -- -- 53
2018-06-26 23:00:00 22.6 23 Oeste 35 Oeste 0 -- -- 47
2018-06-26 22:00:00 24.2 26 Oeste 35 Oeste 0 -- -- 44
2018-06-26 21:00:00 27.5 24 Oeste 34 Oeste 0 -- -- 42
2018-06-26 20:00:00 29.1 22 Oeste 33 Oeste 0 -- -- 40
2018-06-26 19:00:00 30.7 18 Sudoeste 30 Oeste 0 -- -- 38
2018-06-26 18:00:00 30.4 14 Oeste 29 Sudoeste 0 -- -- 41
2018-06-26 17:00:00 29.5 16 Oeste 27 Oeste 0 -- -- 43
2018-06-26 16:00:00 29.5 15 Sudoeste 24 Sudoeste 0 -- -- 43
2018-06-26 15:00:00 29.2 10 Noroeste 21 Oeste 0 -- -- 43
2018-06-26 14:00:00 29 7 Oeste 26 Oeste 0 -- -- 44
2018-06-26 13:00:00 27.3 8 Oeste 21 Noroeste 0 -- -- 47
2018-06-26 12:00:00 25.3 10 Sudoeste 19 Sudoeste 0 -- -- 49
2018-06-26 11:00:00 22.7 8 Oeste 15 Oeste 0 -- -- 60
2018-06-26 10:00:00 20 10 Oeste 17 Oeste 0 -- -- 72
2018-06-26 09:00:00 17.1 6 Sudoeste 10 Oeste 0 -- -- 86
2018-06-26 08:00:00 15.3 3 Oeste 7 Sudoeste 0 -- -- 91
2018-06-26 07:00:00 15 6 Sudoeste 9 Oeste 0 -- -- 91
2018-06-26 06:00:00 15.6 5 Sur 8 Sur 0 -- -- 90
2018-06-26 05:00:00 15.8 5 Sudeste 9 Oeste 0 -- -- 88
2018-06-26 04:00:00 16.5 7 Oeste 9 Oeste 0 -- -- 85
2018-06-26 03:00:00 17.5 6 Oeste 8 Oeste 0 -- -- 83
2018-06-26 02:00:00 18 6 Oeste 13 Sudoeste 0 -- -- 80
2018-06-26 01:00:00 19.1 12 Oeste 18 Oeste 0 -- -- 76
2018-06-26 00:00:00 20.4 13 Oeste 17 Oeste 0 -- -- 71
2018-06-25 23:00:00 22 17 Oeste 27 Oeste 0 -- -- 65
2018-06-25 22:00:00 23.8 20 Oeste 27 Oeste 0 -- -- 59
2018-06-25 21:00:00 28.2 15 Sudoeste 24 Sudoeste 0 -- -- 42
2018-06-25 20:00:00 30.2 17 Sudoeste 32 Oeste 0 -- -- 37
2018-06-25 19:00:00 31.3 16 Sudoeste 27 Sudoeste 0 -- -- 37
2018-06-25 18:00:00 31.1 19 Sudoeste 32 Sudoeste 0 -- -- 35
2018-06-25 17:00:00 31.2 18 Sur 33 Sur 0 -- -- 37
2018-06-25 16:00:00 31.3 15 Sur 30 Sur 0 -- -- 37
2018-06-25 15:00:00 30.4 13 Sur 29 Sur 0 -- -- 40
2018-06-25 14:00:00 29.5 13 Sudeste 27 Sur 0 -- -- 44
2018-06-25 13:00:00 27.8 9 Sur 21 Sudeste 0 -- -- 49
2018-06-25 12:00:00 26.6 13 Sudeste 21 Este 0 -- -- 54
2018-06-25 11:00:00 24.6 8 Sudeste 13 Sudeste 0 -- -- 60
2018-06-25 10:00:00 21.7 6 Sudeste 15 Sudeste 0 -- -- 70
2018-06-25 09:00:00 18.6 11 Sudeste 21 Sudeste 0 -- -- 83
2018-06-25 08:00:00 16.7 15 Este 21 Este 0 -- -- 90
2018-06-25 07:00:00 16.7 9 Este 20 Sudeste 0 -- -- 88
2018-06-25 06:00:00 18 14 Sudeste 21 Sudeste 0 -- -- 80
2018-06-25 05:00:00 18.5 14 Sudeste 18 Sudeste 0 -- -- 78
2018-06-25 04:00:00 18.2 0 Calma 9 Sudoeste 0 -- -- 79
2018-06-25 03:00:00 18.7 9 Sudoeste 14 Oeste 0 -- -- 76
2018-06-25 02:00:00 20 13 Sudoeste 23 Sudoeste 0 -- -- 72
2018-06-25 01:00:00 21 14 Oeste 23 Oeste 0 -- -- 68
2018-06-25 00:00:00 22.8 16 Oeste 28 Sudoeste 0 -- -- 62
2018-06-24 23:00:00 24.8 18 Oeste 28 Sudoeste 0 -- -- 55
2018-06-24 22:00:00 27.2 23 Oeste 29 Oeste 0 -- -- 47
2018-06-24 21:00:00 31.1 11 Sur 19 Sur 0 -- -- 32
2018-06-24 20:00:00 33.1 14 Sur 21 Sur 0 -- -- 28
2018-06-24 19:00:00 34.6 11 Sudoeste 30 Sur 0 -- -- 27
2018-06-24 18:00:00 35.1 13 Sur 26 Sur 0 -- -- 26
2018-06-24 17:00:00 34.8 14 Sur 35 Sur 0 -- -- 26
2018-06-24 16:00:00 34.8 24 Sur 37 Sur 0 -- -- 25
2018-06-24 15:00:00 34.8 19 Sudeste 33 Sudeste 0 -- -- 23
2018-06-24 14:00:00 33.9 17 Este 31 Sudeste 0 -- -- 27
2018-06-24 13:00:00 33.1 18 Sur 28 Sudeste 0 -- -- 28
2018-06-24 12:00:00 31 10 Sudeste 22 Sudeste 0 -- -- 33
2018-06-24 11:00:00 29.1 6 Este 15 Nordeste 0 -- -- 37
2018-06-24 10:00:00 25.1 5 Noroeste 8 Noroeste 0 -- -- 51
2018-06-24 09:00:00 22 3 Sudoeste 6 Sudeste 0 -- -- 62
2018-06-24 08:00:00 18.1 5 Sudeste 9 Sudeste 0 -- -- 77
2018-06-24 07:00:00 17.9 2 Noroeste 6 Oeste 0 -- -- 77
2018-06-24 06:00:00 18.2 5 Oeste 9 Oeste 0 -- -- 74
2018-06-24 05:00:00 18.8 4 Oeste 13 Oeste 0 -- -- 71
2018-06-24 04:00:00 19.3 12 Oeste 14 Oeste 0 -- -- 67
2018-06-24 03:00:00 20.4 8 Sudoeste 17 Sudoeste 0 -- -- 58
2018-06-24 02:00:00 21.6 13 Sudoeste 18 Oeste 0 -- -- 50
2018-06-24 01:00:00 23.4 10 Sudoeste 13 Sudoeste 0 -- -- 44
2018-06-24 00:00:00 25.6 6 Sudoeste 10 Sudoeste 0 -- -- 41
2018-06-23 23:00:00 27.4 4 Sudoeste 8 Sur 0 -- -- 37
2018-06-23 22:00:00 28.4 5 Sudoeste 17 Sur 0 -- -- 35
2018-06-23 21:00:00 31 13 Sur 21 Sudeste 0 -- -- 31
2018-06-23 20:00:00 32.8 16 Sudeste 26 Sur 0 -- -- 27
2018-06-23 19:00:00 33.9 12 Sur 33 Sur 0 -- -- 25
2018-06-23 18:00:00 34.4 19 Sur 37 Sur 0 -- -- 25
2018-06-23 17:00:00 34.6 17 Sur 34 Sur 0 -- -- 26
2018-06-23 16:00:00 33.9 23 Sudeste 43 Sur 0 -- -- 28
2018-06-23 15:00:00 33.6 9 Noroeste 33 Este 0 -- -- 28
2018-06-23 14:00:00 32.8 14 Sudeste 27 Este 0 -- -- 30
2018-06-23 13:00:00 31.7 10 Este 25 Sudeste 0 -- -- 35
2018-06-23 12:00:00 30.4 10 Nordeste 22 Nordeste 0 -- -- 37
2018-06-23 11:00:00 28.6 9 Este 18 Este 0 -- -- 41
2018-06-23 10:00:00 26.7 5 Este 10 Este 0 -- -- 44
2018-06-23 09:00:00 23.2 4 Norte 6 Norte 0 -- -- 49
2018-06-23 08:00:00 19.7 5 Sudeste 8 Sudeste 0 -- -- 57
2018-06-23 07:00:00 18.4 5 Sur 7 Sudeste 0 -- -- 61
2018-06-23 06:00:00 18.3 4 Sur 8 Noroeste 0 -- -- 62
2018-06-23 05:00:00 18.8 7 Oeste 18 Sudoeste 0 -- -- 60
2018-06-23 04:00:00 19.3 14 Sudoeste 20 Sudoeste 0 -- -- 58
2018-06-23 03:00:00 19.6 14 Sudoeste 21 Sudoeste 0 -- -- 60
2018-06-23 02:00:00 20.4 15 Sudoeste 20 Oeste 0 -- -- 62
2018-06-23 01:00:00 21.8 17 Oeste 23 Sudoeste 0 -- -- 61
2018-06-23 00:00:00 23.2 7 Sudoeste 15 Oeste 0 -- -- 56
2018-06-22 23:00:00 24.3 11 Oeste 14 Oeste 0 -- -- 54
2018-06-22 22:00:00 26.3 10 Oeste 16 Sur 0 -- -- 48
2018-06-22 21:00:00 29.4 15 Sur 21 Sudoeste 0 -- -- 30
2018-06-22 20:00:00 31.1 17 Sur 27 Sur 0 -- -- 30
2018-06-22 19:00:00 32.3 18 Sur 31 Sur 0 -- -- 29
2018-06-22 18:00:00 33.2 14 Sur 33 Sur 0 -- -- 28
2018-06-22 17:00:00 33.3 14 Sudeste 33 Sudeste 0 -- -- 27
2018-06-22 16:00:00 31.7 9 Sur 27 Sudeste 0 -- -- 33
2018-06-22 15:00:00 31.7 13 Este 27 Sudeste 0 -- -- 33
2018-06-22 14:00:00 30.7 14 Este 25 Sudeste 0 -- -- 37
2018-06-22 13:00:00 28.9 7 Sudeste 22 Sudeste 0 -- -- 41
2018-06-22 12:00:00 26.1 6 Sudeste 14 Sudeste 0 -- -- 48
2018-06-22 11:00:00 24.9 9 Este 16 Nordeste 0 -- -- 53
2018-06-22 10:00:00 20.9 5 Norte 16 Norte 0 -- -- 65
2018-06-22 09:00:00 18.4 4 Noroeste 8 Sudoeste 0 -- -- 79
2018-06-22 08:00:00 17.7 2 Sudoeste 16 Sudoeste 0 -- -- 80
2018-06-22 07:00:00 17.8 11 Sudoeste 15 Sudoeste 0 -- -- 81
2018-06-22 06:00:00 18.1 8 Sudoeste 14 Sudoeste 0 -- -- 78
2018-06-22 05:00:00 18.1 9 Sudoeste 13 Sudoeste 0 -- -- 81
2018-06-22 04:00:00 17.8 10 Sudoeste 29 Sudoeste 0 -- -- 83
2018-06-22 03:00:00 18.6 12 Sudoeste 21 Sudoeste 0 -- -- 74
2018-06-22 02:00:00 19.1 12 Sudoeste 19 Oeste 0 -- -- 72
2018-06-22 01:00:00 19.9 12 Oeste 17 Oeste 0 -- -- 68
2018-06-22 00:00:00 20.5 13 Oeste 21 Oeste 0 -- -- 65
2018-06-21 23:00:00 21.7 14 Oeste 25 Oeste 0 -- -- 61
2018-06-21 22:00:00 24.1 20 Oeste 36 Oeste 0 -- -- 51
2018-06-21 21:00:00 29.3 15 Sudoeste 33 Sudoeste 0 -- -- 34
2018-06-21 20:00:00 30.7 18 Sudoeste 27 Sudoeste 0 -- -- 32
2018-06-21 19:00:00 31.4 12 Sur 24 Sudeste 0 -- -- 31
2018-06-21 18:00:00 31.9 10 Sudeste 22 Este 0 -- -- 30
2018-06-21 17:00:00 31.7 10 Sudeste 23 Sur 0 -- -- 31
2018-06-21 16:00:00 30.3 13 Sudeste 24 Sudeste 0 -- -- 34
2018-06-21 15:00:00 29.9 9 Sudoeste 29 Sur 0 -- -- 38
2018-06-21 14:00:00 27.6 7 Noroeste 17 Noroeste 0 -- -- 43
2018-06-21 13:00:00 25.5 7 Noroeste 23 Noroeste 0 -- -- 51
2018-06-21 12:00:00 22.8 14 Norte 26 Norte 0 -- -- 62
2018-06-21 11:00:00 20.8 18 Noroeste 28 Oeste 0 -- -- 74
2018-06-21 10:00:00 17.8 14 Oeste 29 Noroeste 0.6 -- -- 88
2018-06-21 09:00:00 19 7 Oeste 21 Sudoeste 0 -- -- 74
2018-06-21 08:00:00 18.4 14 Sudoeste 20 Sudoeste 0 -- -- 76
2018-06-21 07:00:00 18.7 11 Sudoeste 18 Oeste 0 -- -- 71
2018-06-21 06:00:00 19.4 5 Sudeste 13 Sudeste 0 -- -- 66
2018-06-21 05:00:00 20.4 15 Sudeste 23 Sudeste 0 -- -- 61
2018-06-21 04:00:00 20.6 14 Sudeste 18 Sudeste 0 -- -- 65
2018-06-21 03:00:00 21 6 Sudoeste 11 Sudoeste 0 -- -- 57
2018-06-21 02:00:00 21.4 5 Sudoeste 9 Noroeste 0 -- -- 52
2018-06-21 01:00:00 21.9 6 Sudoeste 11 Oeste 0 -- -- 51
2018-06-21 00:00:00 22.5 7 Oeste 16 Noroeste 0 -- -- 48
2018-06-20 23:00:00 23.5 8 Noroeste 22 Oeste 0 -- -- 45
2018-06-20 22:00:00 25.6 21 Oeste 31 Oeste 0 -- -- 41
2018-06-20 21:00:00 28.6 19 Noroeste 32 Oeste 0 -- -- 34
2018-06-20 20:00:00 30.5 20 Oeste 32 Oeste 0 -- -- 33
2018-06-20 19:00:00 32.8 18 Oeste 31 Oeste 0 -- -- 30
2018-06-20 18:00:00 33.5 14 Oeste 27 Oeste 0 -- -- 30
2018-06-20 17:00:00 32.6 13 Noroeste 27 Oeste 0 -- -- 31
2018-06-20 16:00:00 31.7 10 Sudoeste 24 Sudoeste 0 -- -- 35
2018-06-20 15:00:00 29.2 16 Sudoeste 41 Sudoeste 0 -- -- 38
2018-06-20 14:00:00 33 10 Sudeste 22 Sudeste 0 -- -- 27
2018-06-20 13:00:00 30.7 8 Este 28 Sudeste 0 -- -- 30
2018-06-20 12:00:00 29.1 9 Este 20 Sudeste 0 -- -- 35
2018-06-20 11:00:00 27.4 12 Sudeste 22 Sudeste 0 -- -- 39
2018-06-20 10:00:00 24.7 10 Sudeste 15 Sudeste 0 -- -- 45
2018-06-20 09:00:00 22.7 10 Sudeste 19 Sudeste 0 -- -- 49
2018-06-20 08:00:00 18.8 17 Sudeste 24 Este 0 -- -- 57
2018-06-20 07:00:00 17.6 17 Este 20 Este 0 -- -- 59
2018-06-20 06:00:00 19.3 9 Este 16 Sudeste 0 -- -- 56
2018-06-20 05:00:00 20.1 14 Sudeste 19 Este 0 -- -- 53
2018-06-20 04:00:00 21.1 11 Este 16 Sudeste 0 -- -- 52
2018-06-20 03:00:00 22.1 5 Sudeste 6 Sudeste 0 -- -- 49
2018-06-20 02:00:00 23.4 3 Sudoeste 5 Sudoeste 0 -- -- 44
2018-06-20 01:00:00 23.9 3 Sudoeste 9 Sur 0 -- -- 43
2018-06-20 00:00:00 24 6 Sudoeste 18 Oeste 0 -- -- 44
2018-06-19 23:00:00 24.9 15 Sudeste 19 Sudeste 0 -- -- 43
2018-06-19 22:00:00 26.7 13 Sudeste 23 Sur 0 -- -- 40
2018-06-19 21:00:00 30.3 13 Sudeste 21 Sur 0 -- -- 32
2018-06-19 20:00:00 32 13 Sur 27 Sur 0 -- -- 29
2018-06-19 19:00:00 32.9 15 Sudeste 27 Sur 0 -- -- 29
2018-06-19 18:00:00 33 13 Sur 31 Sur 0 -- -- 29
2018-06-19 17:00:00 33.3 15 Sur 30 Sur 0 -- -- 29
2018-06-19 16:00:00 32.6 15 Sur 31 Sur 0 -- -- 29
2018-06-19 15:00:00 32.3 15 Sur 30 Sudeste 0 -- -- 32
2018-06-19 14:00:00 31.4 10 Sudeste 23 Sur 0 -- -- 33
2018-06-19 13:00:00 30.8 10 Sur 27 Sudeste 0 -- -- 33
2018-06-19 12:00:00 29.1 9 Sur 23 Sudeste 0 -- -- 36
2018-06-19 11:00:00 27.7 10 Sudeste 22 Sudeste 0 -- -- 38
2018-06-19 10:00:00 25 15 Sudeste 20 Sudeste 0 -- -- 46
2018-06-19 09:00:00 21.9 9 Este 14 Este 0 -- -- 56
2018-06-19 08:00:00 19.6 8 Este 13 Este 0 -- -- 62
2018-06-19 07:00:00 18 11 Sudeste 13 Sudeste 0 -- -- 67
2018-06-19 06:00:00 18.8 2 Sur 5 Sudoeste 0 -- -- 64
2018-06-19 05:00:00 18.2 5 Sudoeste 12 Oeste 0 -- -- 68
2018-06-19 04:00:00 18.7 10 Oeste 12 Sudoeste 0 -- -- 66
2018-06-19 03:00:00 19.5 9 Oeste 13 Oeste 0 -- -- 63
2018-06-19 02:00:00 20.2 12 Oeste 17 Oeste 0 -- -- 61
2018-06-19 01:00:00 21.4 13 Sudoeste 16 Oeste 0 -- -- 58
2018-06-19 00:00:00 23 12 Oeste 22 Sudoeste 0 -- -- 55
2018-06-18 23:00:00 26.1 14 Oeste 21 Sudoeste 0 -- -- 48
2018-06-18 22:00:00 29.7 11 Este 17 Nordeste 0 -- -- 28
2018-06-18 21:00:00 32.2 15 Nordeste 31 Nordeste 0 -- -- 25
2018-06-18 20:00:00 34 22 Nordeste 31 Nordeste 0 -- -- 23
2018-06-18 19:00:00 34.9 17 Nordeste 28 Nordeste 0 -- -- 23
2018-06-18 18:00:00 35.5 7 Norte 28 Sudeste 0 -- -- 23
2018-06-18 17:00:00 33.9 13 Sudeste 23 Este 0 -- -- 25
2018-06-18 16:00:00 34.8 14 Este 27 Sudeste 0 -- -- 24
2018-06-18 15:00:00 35.4 11 Sudeste 35 Este 0 -- -- 25
2018-06-18 14:00:00 34.2 16 Sudeste 29 Sudeste 0 -- -- 28
2018-06-18 13:00:00 33.3 15 Este 35 Sudeste 0 -- -- 28
2018-06-18 12:00:00 31.9 20 Este 34 Sudeste 0 -- -- 31
2018-06-18 11:00:00 29.5 24 Este 35 Este 0 -- -- 33
2018-06-18 10:00:00 28.1 21 Este 31 Este 0 -- -- 37
2018-06-18 09:00:00 25.4 15 Este 27 Este 0 -- -- 42
2018-06-18 08:00:00 23.1 21 Este 27 Este 0 -- -- 46
2018-06-18 07:00:00 20 11 Este 18 Este 0 -- -- 55
2018-06-18 06:00:00 20.7 13 Este 17 Este 0 -- -- 52
2018-06-18 05:00:00 21.5 8 Norte 10 Norte 0 -- -- 49
2018-06-18 04:00:00 22.2 3 Sur 10 Norte 0 -- -- 49
2018-06-18 03:00:00 23.1 3 Noroeste 15 Nordeste 0 -- -- 46
2018-06-18 02:00:00 23.9 10 Nordeste 17 Nordeste 0 -- -- 46
2018-06-18 01:00:00 23.5 10 Nordeste 18 Norte 0 -- -- 51
2018-06-18 00:00:00 26.2 8 Sudeste 16 Sur 0 -- -- 44
2018-06-17 23:00:00 26.4 10 Sur 18 Sur 0 -- -- 45
2018-06-17 22:00:00 28.2 10 Sudeste 19 Sudoeste 0 -- -- 42
2018-06-17 21:00:00 30 15 Sur 27 Sur 0 -- -- 38
2018-06-17 20:00:00 33 15 Sur 23 Sudoeste 0 -- -- 33
2018-06-17 19:00:00 33.1 10 Sur 24 Sudeste 0 -- -- 32
2018-06-17 18:00:00 34.2 5 Sudeste 21 Nordeste 0 -- -- 28
2018-06-17 17:00:00 35.4 11 Norte 27 Oeste 0 -- -- 26
2018-06-17 16:00:00 35.8 9 Sudeste 24 Sudeste 0 -- -- 25
2018-06-17 15:00:00 35.7 13 Norte 27 Nordeste 0 -- -- 25
2018-06-17 14:00:00 33.6 10 Nordeste 21 Noroeste 0 -- -- 28
2018-06-17 13:00:00 33.1 10 Noroeste 19 Norte 0 -- -- 32
2018-06-17 12:00:00 31.2 6 Oeste 14 Noroeste 0 -- -- 34
2018-06-17 11:00:00 29.1 4 Sudeste 12 Nordeste 0 -- -- 38
2018-06-17 10:00:00 26.6 3 Nordeste 6 Sur 0 -- -- 42
2018-06-17 09:00:00 23.8 2 Sur 3 Sudoeste 0 -- -- 51
2018-06-17 08:00:00 21.3 3 Sudeste 6 Sudeste 0 -- -- 58
2018-06-17 07:00:00 20.6 0 Calma 4 Sudoeste 0 -- -- 60
2018-06-17 06:00:00 20.7 2 Sudoeste 6 Sudoeste 0 -- -- 62
2018-06-17 05:00:00 20.8 3 Sur 7 Sudoeste 0 -- -- 65
2018-06-17 04:00:00 20.8 5 Sudoeste 6 Sudoeste 0 -- -- 65
2018-06-17 03:00:00 21 4 Sudoeste 7 Sudoeste 0 -- -- 62
2018-06-17 02:00:00 21.7 4 Sudoeste 8 Sudoeste 0 -- -- 59
2018-06-17 01:00:00 22.7 6 Sudoeste 13 Oeste 0 -- -- 51
2018-06-17 00:00:00 25 8 Sudoeste 13 Sudoeste 0 -- -- 39